Time;durP1;ratioP1;P1;durP2;ratioP2;P2;SDS_P1;SDS_P2;PMS_P1;PMS_P2;Temp;Humidity;BMP_temperature;BMP_pressure;BME280_temperature;BME280_humidity;BME280_pressure;Samples;Min_cycle;Max_cycle;Signal;HPM_P1;HPM_P2
2022/01/05 00:01:46;;;;;;;3.90;2.47;;;;;;;7.40;82.86;98744.84;5013045;28;20503;-77
2022/01/05 00:04:11;;;;;;;5.03;2.55;;;;;;;7.36;83.40;98740.56;5012884;28;20117;-77
2022/01/05 00:06:36;;;;;;;4.97;2.60;;;;;;;7.40;83.02;98744.84;5012725;28;20445;-76
2022/01/05 00:09:02;;;;;;;4.50;2.53;;;;;;;7.37;83.62;98734.41;5012850;28;20041;-77
2022/01/05 00:11:28;;;;;;;5.88;2.80;;;;;;;7.37;83.63;98731.78;5013028;28;20088;-77
2022/01/05 00:13:56;;;;;;;5.32;2.92;;;;;;;7.33;83.82;98727.50;5012760;28;20038;-77
2022/01/05 00:16:21;;;;;;;6.35;3.35;;;;;;;7.28;84.11;98725.88;5012687;28;20045;-77
2022/01/05 00:18:46;;;;;;;7.50;3.75;;;;;;;7.26;84.71;98736.41;5012770;28;20087;-76
2022/01/05 00:21:11;;;;;;;7.80;4.75;;;;;;;7.22;85.25;98746.09;5012566;28;20036;-77
2022/01/05 00:23:37;;;;;;;6.68;4.60;;;;;;;7.12;85.32;98755.06;5012808;28;20037;-77
2022/01/05 00:26:04;;;;;;;6.95;4.57;;;;;;;7.11;86.23;98748.09;5012148;28;20104;-77
2022/01/05 00:28:30;;;;;;;8.38;5.28;;;;;;;7.12;85.68;98755.06;5011519;28;20045;-77
2022/01/05 00:30:55;;;;;;;6.90;4.72;;;;;;;7.10;85.90;98751.63;5012598;28;20046;-77
2022/01/05 00:33:21;;;;;;;7.03;5.07;;;;;;;7.14;86.50;98755.88;5012266;28;20164;-76
2022/01/05 00:35:46;;;;;;;8.15;5.13;;;;;;;7.16;86.48;98761.13;5011831;28;20041;-77
2022/01/05 00:38:12;;;;;;;7.10;4.85;;;;;;;7.16;85.85;98761.13;5012283;28;20845;-76
2022/01/05 00:40:37;;;;;;;8.18;5.53;;;;;;;7.08;86.58;98763.03;5011232;28;20459;-76
2022/01/05 00:43:02;;;;;;;9.25;5.70;;;;;;;7.09;86.86;98760.38;5011973;28;20151;-77
2022/01/05 00:45:28;;;;;;;8.70;5.00;;;;;;;7.07;86.74;98756.91;5012079;28;20038;-76
2022/01/05 00:47:53;;;;;;;7.88;5.13;;;;;;;7.02;86.49;98764.88;5010638;28;20065;-76
2022/01/05 00:50:18;;;;;;;8.07;5.75;;;;;;;6.97;87.06;98761.50;5012117;28;20096;-76
2022/01/05 00:52:44;;;;;;;10.55;5.18;;;;;;;6.95;86.82;98759.78;5011925;28;20033;-76
2022/01/05 00:55:09;;;;;;;8.55;4.85;;;;;;;6.91;86.50;98760.72;5011820;28;20386;-77
2022/01/05 00:57:35;;;;;;;7.00;4.75;;;;;;;6.91;87.19;98753.72;5011965;28;20408;-76
2022/01/05 01:00:00;;;;;;;7.10;5.40;;;;;;;6.89;87.07;98747.66;5012062;28;20044;-76
2022/01/05 01:02:26;;;;;;;8.40;5.20;;;;;;;6.92;86.82;98739.75;5014180;28;20088;-76
2022/01/05 01:04:51;;;;;;;9.80;5.30;;;;;;;6.98;86.59;98744.00;5016315;28;20463;-77
2022/01/05 01:07:16;;;;;;;7.85;4.97;;;;;;;6.99;86.51;98738.69;5014732;28;20658;-76
2022/01/05 01:09:42;;;;;;;8.65;4.88;;;;;;;7.01;86.82;98734.28;5011475;28;20042;-76
2022/01/05 01:12:08;;;;;;;6.60;4.22;;;;;;;7.02;86.28;98724.66;5011625;28;20038;-77
2022/01/05 01:14:33;;;;;;;7.82;4.60;;;;;;;6.99;86.18;98733.44;5011365;28;20044;-77
2022/01/05 01:16:58;;;;;;;6.90;4.65;;;;;;;6.91;86.93;98730.13;4994057;28;20042;-76
2022/01/05 01:19:24;;;;;;;8.65;4.88;;;;;;;6.93;87.41;98737.97;5011662;28;20407;-76
2022/01/05 01:21:49;;;;;;;8.73;4.85;;;;;;;6.98;86.51;98741.38;5010246;28;20563;-76
2022/01/05 01:24:15;;;;;;;8.15;4.10;;;;;;;7.01;86.77;98738.69;5011420;28;20447;-76
2022/01/05 01:26:40;;;;;;;7.13;3.75;;;;;;;6.97;87.00;98737.88;5011526;28;20040;-77
2022/01/05 01:29:05;;;;;;;7.35;4.80;;;;;;;6.96;86.75;98743.16;5011568;28;20040;-76
2022/01/05 01:31:31;;;;;;;7.50;4.00;;;;;;;6.95;86.97;98747.53;5011405;28;20680;-76
2022/01/05 01:33:56;;;;;;;5.60;3.88;;;;;;;6.93;86.76;98735.34;5011396;28;20066;-77
2022/01/05 01:36:22;;;;;;;7.47;4.40;;;;;;;6.91;86.92;98724.88;5011212;28;20095;-76
2022/01/05 01:38:47;;;;;;;6.03;3.95;;;;;;;6.85;87.36;98713.66;5010170;28;20042;-76
2022/01/05 01:41:13;;;;;;;6.00;3.92;;;;;;;6.88;87.73;98709.22;5011383;28;20084;-77
2022/01/05 01:43:38;;;;;;;7.13;4.30;;;;;;;6.87;87.62;98725.00;5011324;28;20076;-77
2022/01/05 01:46:05;;;;;;;7.45;4.50;;;;;;;6.91;87.83;98721.41;5011151;28;20057;-77
2022/01/05 01:48:31;;;;;;;8.85;5.22;;;;;;;6.91;87.79;98709.13;5011342;28;20034;-77
2022/01/05 01:50:57;;;;;;;9.70;5.80;;;;;;;6.91;88.10;98714.38;5007482;28;20038;-77
2022/01/05 01:53:22;;;;;;;10.57;6.30;;;;;;;6.98;88.31;98707.28;5011174;28;20053;-77
2022/01/05 01:55:49;;;;;;;9.98;5.65;;;;;;;7.09;88.12;98717.53;5011086;28;20034;-76
2022/01/05 01:58:16;;;;;;;11.15;6.50;;;;;;;7.14;87.76;98715.69;5010076;28;20073;-76
2022/01/05 02:00:41;;;;;;;10.63;5.97;;;;;;;7.18;87.34;98719.97;5011166;28;20041;-76
2022/01/05 02:03:07;;;;;;;11.52;6.70;;;;;;;7.19;86.84;98716.44;5011135;28;20038;-75
2022/01/05 02:05:32;;;;;;;10.13;6.57;;;;;;;7.18;87.45;98709.50;5010936;28;20075;-76
2022/01/05 02:07:57;;;;;;;10.75;7.07;;;;;;;7.17;87.32;98710.38;5011122;28;20041;-76
2022/01/05 02:10:23;;;;;;;8.85;6.15;;;;;;;7.20;87.69;98705.03;5011127;28;20037;-76
2022/01/05 02:12:50;;;;;;;9.57;5.90;;;;;;;7.21;87.25;98707.66;5011003;28;20046;-76
2022/01/05 02:15:16;;;;;;;8.98;5.57;;;;;;;7.21;87.24;98706.78;5010874;28;20116;-76
2022/01/05 02:20:25;;;;;;;7.18;5.20;;;;;;;7.07;87.97;98688.69;5011065;28;20033;-76
2022/01/05 02:22:52;;;;;;;9.75;6.20;;;;;;;7.07;88.39;98691.31;5010805;28;20060;-78
2022/01/05 02:25:17;;;;;;;8.70;5.53;;;;;;;7.09;88.20;98697.41;5018916;28;20044;-77
2022/01/05 02:27:44;;;;;;;7.72;5.78;;;;;;;7.10;88.22;98687.78;5011863;28;20124;-77
2022/01/05 02:30:12;;;;;;;8.23;5.75;;;;;;;7.11;87.79;98694.75;5014629;28;20042;-78
2022/01/05 02:32:38;;;;;;;8.80;5.63;;;;;;;7.10;87.70;98693.91;5018041;28;20038;-78
2022/01/05 02:35:04;;;;;;;7.05;4.57;;;;;;;7.10;87.42;98693.03;5025613;28;20045;-78
2022/01/05 02:37:29;;;;;;;7.88;5.22;;;;;;;7.14;87.42;98699.94;5021817;28;20122;-78
2022/01/05 02:39:55;;;;;;;7.68;5.00;;;;;;;7.15;87.26;98706.91;5021638;28;20061;-78
2022/01/05 02:42:28;;;;;;;7.68;5.35;;;;;;;7.14;87.25;98705.19;5021234;28;20041;-78
2022/01/05 02:44:55;;;;;;;7.00;4.15;;;;;;;7.08;87.20;98700.09;5018059;28;20038;-78
2022/01/05 02:47:20;;;;;;;5.88;3.67;;;;;;;6.94;87.54;98703.88;5021123;28;20030;-78
2022/01/05 02:49:46;;;;;;;7.85;4.47;;;;;;;6.96;87.97;98695.94;5021652;28;20117;-78
2022/01/05 02:52:11;;;;;;;6.10;3.15;;;;;;;6.96;87.56;98688.06;5021075;28;20042;-78
2022/01/05 02:54:37;;;;;;;5.50;2.30;;;;;;;6.86;87.13;98682.16;5017246;28;20037;-77
2022/01/05 02:57:02;;;;;;;4.95;2.65;;;;;;;6.83;87.50;98689.22;5016358;28;20076;-78
2022/01/05 02:59:28;;;;;;;5.72;2.80;;;;;;;6.82;86.94;98688.38;5016655;28;20409;-78
2022/01/05 03:01:54;;;;;;;4.20;2.05;;;;;;;6.81;87.76;98670.88;5016697;28;20037;-77
2022/01/05 03:04:19;;;;;;;4.45;2.20;;;;;;;6.73;87.71;98668.47;5016229;28;20112;-77
2022/01/05 03:06:45;;;;;;;4.93;2.47;;;;;;;6.73;87.55;98662.31;5015469;28;20026;-77
2022/01/05 03:09:10;;;;;;;4.05;2.28;;;;;;;6.75;87.42;98665.78;5016588;28;20037;-77
2022/01/05 03:11:35;;;;;;;4.50;2.40;;;;;;;6.75;88.04;98676.28;5016254;28;20120;-77
2022/01/05 03:14:01;;;;;;;3.72;2.00;;;;;;;6.78;87.67;98676.19;5016225;28;20069;-77
2022/01/05 03:16:26;;;;;;;3.88;1.92;;;;;;;6.74;87.72;98670.16;5015952;28;20048;-77
2022/01/05 03:18:51;;;;;;;4.25;2.30;;;;;;;6.69;87.58;98679.03;5015376;28;20026;-77
2022/01/05 03:21:16;;;;;;;3.63;1.83;;;;;;;6.66;87.69;98666.84;5015521;28;20045;-77
2022/01/05 03:23:46;;;;;;;5.13;2.13;;;;;;;6.65;87.61;98665.09;5016164;28;20661;-77
2022/01/05 03:26:11;;;;;;;4.22;2.30;;;;;;;6.62;88.19;98669.56;5022600;28;20045;-77
2022/01/05 03:28:36;;;;;;;3.50;2.05;;;;;;;6.62;88.33;98674.78;5016005;28;20038;-77
2022/01/05 03:31:02;;;;;;;3.67;1.55;;;;;;;6.69;87.74;98679.03;5017280;28;20059;-78
2022/01/05 03:33:27;;;;;;;3.65;1.70;;;;;;;6.73;87.77;98675.44;5016731;28;20042;-77
2022/01/05 03:35:53;;;;;;;3.53;1.63;;;;;;;6.75;87.69;98673.66;5023883;28;20099;-77
2022/01/05 03:38:19;;;;;;;3.45;1.80;;;;;;;6.77;87.71;98685.84;5017580;28;20030;-77
2022/01/05 03:40:46;;;;;;;3.03;1.60;;;;;;;6.76;87.01;98675.41;5016113;28;20037;-77
2022/01/05 03:43:12;;;;;;;4.55;2.38;;;;;;;6.71;87.41;98678.09;5016650;28;20093;-78
2022/01/05 03:45:37;;;;;;;4.68;2.30;;;;;;;6.71;87.50;98675.47;5023946;28;20045;-78
2022/01/05 03:48:06;;;;;;;3.50;1.92;;;;;;;6.75;87.87;98679.75;5015474;28;20042;-78
2022/01/05 03:50:31;;;;;;;5.50;2.97;;;;;;;6.73;88.10;98670.19;5002647;28;20085;-77
2022/01/05 03:52:56;;;;;;;5.10;2.95;;;;;;;6.71;87.92;98662.38;5014258;28;20065;-77
2022/01/05 03:55:22;;;;;;;4.18;2.30;;;;;;;6.70;88.30;98683.38;5013310;28;20045;-77
2022/01/05 03:57:47;;;;;;;3.85;2.20;;;;;;;6.70;87.89;98668.50;5021338;28;20048;-78
2022/01/05 04:00:13;;;;;;;4.78;1.98;;;;;;;6.57;87.43;98672.25;5021633;28;20037;-78
2022/01/05 04:02:39;;;;;;;4.13;2.22;;;;;;;6.39;88.77;98670.00;5021781;28;20038;-78
2022/01/05 04:05:04;;;;;;;6.00;2.72;;;;;;;6.36;89.91;98673.53;5020272;28;20087;-78
2022/01/05 04:07:30;;;;;;;3.95;2.60;;;;;;;6.45;90.05;98678.63;5019685;28;20567;-78
2022/01/05 04:09:55;;;;;;;5.38;2.55;;;;;;;6.57;90.14;98683.59;5027067;28;20037;-78
2022/01/05 04:12:20;;;;;;;4.95;2.90;;;;;;;6.55;89.82;98680.16;5019193;28;20053;-78
2022/01/05 04:14:46;;;;;;;4.32;2.20;;;;;;;6.51;89.32;98678.47;5026571;28;20451;-77
2022/01/05 04:17:11;;;;;;;5.00;2.42;;;;;;;6.48;89.75;98682.94;5019618;28;20104;-78
2022/01/05 04:19:36;;;;;;;5.20;2.92;;;;;;;6.44;89.55;98695.22;5020333;28;20060;-78
2022/01/05 04:22:02;;;;;;;6.32;3.00;;;;;;;6.26;89.82;98742.69;5018796;28;20061;-78
2022/01/05 04:24:27;;;;;;;0.63;0.30;;;;;;;5.02;84.12;98753.22;5019982;28;20037;-78
2022/01/05 04:26:52;;;;;;;5.50;0.82;;;;;;;4.07;87.17;98782.94;5019797;28;20107;-78
2022/01/05 04:29:18;;;;;;;4.00;1.05;;;;;;;3.58;87.91;98785.88;5019004;28;20075;-77
2022/01/05 04:31:43;;;;;;;5.90;1.35;;;;;;;3.34;89.43;98800.78;5017154;28;20034;-77
2022/01/05 04:34:09;;;;;;;1.85;0.60;;;;;;;3.10;91.04;98790.47;5026210;28;20072;-77
2022/01/05 04:36:34;;;;;;;2.92;0.80;;;;;;;3.00;91.29;98798.31;5017835;28;20164;-77
2022/01/05 04:38:59;;;;;;;4.13;0.70;;;;;;;2.92;92.08;98784.44;5017010;28;20045;-78
2022/01/05 04:41:25;;;;;;;5.30;0.88;;;;;;;2.87;92.43;98788.78;5017960;28;20065;-78
2022/01/05 04:43:50;;;;;;;3.38;0.98;;;;;;;2.87;93.39;98786.19;5019142;28;20034;-77
2022/01/05 04:46:16;;;;;;;4.85;0.90;;;;;;;2.88;93.25;98794.88;5018340;28;20038;-78
2022/01/05 04:48:42;;;;;;;2.97;0.50;;;;;;;2.71;92.68;98792.31;5016131;28;20128;-79
2022/01/05 04:51:07;;;;;;;1.90;0.30;;;;;;;2.62;92.79;98799.28;5014567;28;20041;-78
2022/01/05 04:53:33;;;;;;;2.78;0.50;;;;;;;2.59;93.60;98801.91;5021199;28;20117;-77
2022/01/05 04:55:58;;;;;;;2.92;0.50;;;;;;;2.59;93.39;98804.50;5020601;28;20057;-77
2022/01/05 04:58:23;;;;;;;3.15;0.50;;;;;;;2.49;93.44;98801.91;5021189;28;20037;-78
2022/01/05 05:00:48;;;;;;;4.43;0.43;;;;;;;2.39;93.61;98807.13;5021376;28;20053;-78
2022/01/05 05:03:14;;;;;;;2.90;0.50;;;;;;;2.38;93.47;98814.94;5021712;28;20042;-78
2022/01/05 05:05:39;;;;;;;2.45;0.60;;;;;;;2.34;93.42;98805.41;5018459;28;20037;-79
2022/01/05 05:08:05;;;;;;;2.72;0.70;;;;;;;2.27;93.97;98807.13;5018920;28;20037;-78
2022/01/05 05:10:31;;;;;;;4.25;0.65;;;;;;;2.30;94.73;98807.13;5016795;28;20033;-78
2022/01/05 05:12:56;;;;;;;2.50;0.52;;;;;;;2.32;94.74;98794.13;5015205;28;20172;-78
2022/01/05 05:15:22;;;;;;;2.67;0.55;;;;;;;2.38;94.71;98801.91;5018956;28;20107;-78
2022/01/05 05:17:47;;;;;;;5.40;0.40;;;;;;;2.38;94.50;98799.31;5021429;28;20069;-78
2022/01/05 05:20:12;;;;;;;1.38;0.40;;;;;;;2.36;93.73;98811.50;5020034;28;20029;-77
2022/01/05 05:22:38;;;;;;;2.47;0.32;;;;;;;2.29;93.37;98804.53;5019307;28;20037;-78
2022/01/05 05:25:04;;;;;;;3.33;0.50;;;;;;;2.26;94.14;98807.16;5020701;28;20044;-78
2022/01/05 05:27:29;;;;;;;3.25;0.50;;;;;;;2.33;93.65;98819.28;5020575;28;20042;-78
2022/01/05 05:29:55;;;;;;;2.25;0.60;;;;;;;2.31;93.45;98816.69;5019938;28;20045;-77
2022/01/05 05:32:20;;;;;;;4.00;1.00;;;;;;;2.30;93.82;98822.75;5021140;28;20037;-78
2022/01/05 05:34:45;;;;;;;4.03;0.82;;;;;;;2.29;93.39;98831.44;5020684;28;20045;-78
2022/01/05 05:37:11;;;;;;;1.02;0.30;;;;;;;2.37;93.67;98834.03;5022045;28;20048;-78
2022/01/05 05:39:36;;;;;;;2.25;0.30;;;;;;;2.31;93.28;98826.25;5020726;28;20034;-79
2022/01/05 05:42:02;;;;;;;2.60;0.73;;;;;;;2.25;93.27;98824.47;5020318;28;20030;-78
2022/01/05 05:44:27;;;;;;;3.83;0.70;;;;;;;2.27;93.46;98827.97;5019945;28;20042;-78
2022/01/05 05:46:52;;;;;;;3.10;0.70;;;;;;;2.30;93.30;98816.69;5020130;28;20041;-78
2022/01/05 05:49:18;;;;;;;3.30;1.10;;;;;;;2.34;93.48;98824.50;5019124;28;20044;-78
2022/01/05 05:51:43;;;;;;;3.33;0.98;;;;;;;2.34;92.93;98824.50;5017818;28;20050;-78
2022/01/05 05:54:08;;;;;;;3.78;1.02;;;;;;;2.32;92.58;98826.22;5019169;28;20034;-79
2022/01/05 05:56:34;;;;;;;3.75;0.75;;;;;;;2.46;92.97;98838.38;5022050;28;20026;-78
2022/01/05 05:58:59;;;;;;;3.72;1.23;;;;;;;2.52;93.10;98848.78;5020365;28;20547;-79
2022/01/05 06:01:24;;;;;;;2.80;0.77;;;;;;;2.63;93.06;98853.09;5019664;28;20416;-78
2022/01/05 06:03:49;;;;;;;2.95;0.57;;;;;;;2.55;92.03;98860.06;5019774;28;20041;-78
2022/01/05 06:06:15;;;;;;;4.60;0.98;;;;;;;2.41;92.25;98862.69;5019546;28;20038;-78
2022/01/05 06:08:40;;;;;;;4.03;0.95;;;;;;;2.44;92.83;98866.13;5019242;28;20064;-78
2022/01/05 06:11:06;;;;;;;4.88;1.00;;;;;;;2.46;92.65;98861.78;5028684;28;20038;-78
2022/01/05 06:13:32;;;;;;;3.35;0.90;;;;;;;2.51;92.81;98866.13;5023436;28;20090;-78
2022/01/05 06:15:57;;;;;;;3.63;0.85;;;;;;;2.53;93.06;98868.75;5023066;28;20466;-77
2022/01/05 06:18:23;;;;;;;3.83;1.05;;;;;;;2.43;92.69;98870.47;5023267;28;20048;-77
2022/01/05 06:20:48;;;;;;;5.05;0.90;;;;;;;2.42;92.77;98884.38;5018740;28;20048;-77
2022/01/05 06:23:13;;;;;;;3.17;1.08;;;;;;;2.48;92.37;98881.75;5019067;28;20026;-77
2022/01/05 06:25:39;;;;;;;2.92;1.08;;;;;;;2.36;92.38;98889.59;5019724;28;20045;-77
2022/01/05 06:28:08;;;;;;;3.67;1.10;;;;;;;2.35;92.54;98882.63;5017583;28;20112;-77
2022/01/05 06:30:34;;;;;;;2.03;0.70;;;;;;;2.33;92.55;98894.78;5017946;28;20033;-77
2022/01/05 06:32:59;;;;;;;3.83;1.63;;;;;;;2.30;92.38;98899.97;5016652;28;20034;-77
2022/01/05 06:35:24;;;;;;;4.13;1.50;;;;;;;2.30;92.70;98906.06;5016996;28;20125;-77
2022/01/05 06:37:53;;;;;;;3.75;1.70;;;;;;;2.30;92.28;98920.81;5016041;28;20128;-77
2022/01/05 06:40:18;;;;;;;3.17;1.23;;;;;;;2.19;91.75;98924.25;5016707;28;20044;-77
2022/01/05 06:42:44;;;;;;;3.03;1.55;;;;;;;2.08;92.33;98925.97;5018046;28;20105;-78
2022/01/05 06:45:09;;;;;;;4.22;1.73;;;;;;;2.00;92.62;98924.22;5019926;28;20050;-77
2022/01/05 06:47:35;;;;;;;2.92;1.10;;;;;;;1.95;92.53;98934.63;5020013;28;20068;-77
2022/01/05 06:50:00;;;;;;;5.57;2.10;;;;;;;1.89;93.00;98945.88;5019886;28;20065;-77
2022/01/05 06:52:25;;;;;;;5.03;2.38;;;;;;;1.83;92.92;98947.59;5019535;28;20484;-77
2022/01/05 06:54:51;;;;;;;6.97;3.03;;;;;;;1.82;93.54;98977.94;5019008;28;20040;-77
2022/01/05 06:57:16;;;;;;;6.15;2.72;;;;;;;1.85;93.42;98974.47;5018668;28;20041;-77
2022/01/05 06:59:42;;;;;;;5.50;2.08;;;;;;;1.82;93.38;98982.28;5018042;28;20050;-77
2022/01/05 07:02:08;;;;;;;5.90;1.92;;;;;;;1.80;93.38;98987.44;5017678;28;20040;-77
2022/01/05 07:04:33;;;;;;;4.97;1.80;;;;;;;1.84;93.60;98981.41;5017638;28;20125;-77
2022/01/05 07:06:59;;;;;;;6.05;2.40;;;;;;;1.86;93.51;98976.19;5017213;28;20046;-77
2022/01/05 07:09:24;;;;;;;6.57;2.20;;;;;;;1.96;93.37;98972.78;5018670;28;20037;-77
2022/01/05 07:11:50;;;;;;;5.40;2.05;;;;;;;1.96;93.63;98973.66;5018581;28;20044;-77
2022/01/05 07:14:15;;;;;;;5.97;2.22;;;;;;;1.99;92.88;98967.56;5017868;28;20049;-77
2022/01/05 07:16:40;;;;;;;4.13;1.88;;;;;;;1.98;93.17;98978.84;5016715;28;20045;-78
2022/01/05 07:19:06;;;;;;;4.32;1.45;;;;;;;1.94;93.21;98964.13;5018361;28;20118;-77
2022/01/05 07:21:33;;;;;;;5.88;1.80;;;;;;;1.99;93.19;98967.56;5000393;28;20034;-77
2022/01/05 07:24:00;;;;;;;7.18;2.33;;;;;;;2.00;92.90;98973.69;5025375;28;20065;-77
2022/01/05 07:26:25;;;;;;;4.95;1.70;;;;;;;2.04;92.49;98991.88;5013889;28;20050;-77
2022/01/05 07:28:51;;;;;;;5.80;2.10;;;;;;;1.98;92.92;98997.94;5017728;28;20029;-77
2022/01/05 07:31:16;;;;;;;5.10;1.58;;;;;;;1.94;93.13;99008.34;5018059;28;20611;-77
2022/01/05 07:33:41;;;;;;;4.68;1.65;;;;;;;1.95;93.06;99013.53;5017752;28;20046;-77
2022/01/05 07:36:06;;;;;;;4.03;1.40;;;;;;;1.96;92.98;99009.19;5017242;28;20033;-77
2022/01/05 07:38:32;;;;;;;5.43;1.50;;;;;;;1.94;93.06;99016.16;5018529;28;20060;-77
2022/01/05 07:40:57;;;;;;;4.85;1.40;;;;;;;1.86;92.56;99013.53;5017570;28;20097;-77
2022/01/05 07:43:23;;;;;;;4.15;1.33;;;;;;;1.82;93.13;99022.16;5017077;28;20054;-77
2022/01/05 07:45:49;;;;;;;4.25;1.40;;;;;;;1.83;93.26;99026.47;5017488;28;20038;-77
2022/01/05 07:48:14;;;;;;;3.30;0.88;;;;;;;1.89;93.63;99023.06;5017307;28;20049;-77
2022/01/05 07:50:39;;;;;;;5.28;1.40;;;;;;;1.99;93.92;99030.03;5017333;28;20041;-76
2022/01/05 07:53:05;;;;;;;3.97;1.30;;;;;;;2.05;93.48;99040.47;5013256;28;20041;-77
2022/01/05 07:55:31;;;;;;;6.45;2.38;;;;;;;2.14;93.80;99050.06;5016960;28;20038;-78
2022/01/05 07:57:59;;;;;;;6.47;1.90;;;;;;;2.30;93.55;99053.56;5015174;28;20041;-77
2022/01/05 08:00:24;;;;;;;6.72;2.55;;;;;;;2.36;93.23;99049.28;5017367;28;20060;-77
2022/01/05 08:02:50;;;;;;;5.32;1.70;;;;;;;2.42;92.64;99048.41;5016269;28;20029;-77
2022/01/05 08:05:15;;;;;;;11.00;2.30;;;;;;;2.40;92.65;99056.22;5016516;28;20116;-77
2022/01/05 08:07:40;;;;;;;5.50;1.65;;;;;;;2.52;92.41;99062.34;5016567;28;20088;-77
2022/01/05 08:10:06;;;;;;;28.50;15.15;;;;;;;2.55;92.78;99063.22;5016657;28;20072;-77
2022/01/05 08:12:31;;;;;;;10.25;3.08;;;;;;;2.57;92.71;99065.81;5017094;28;20038;-77
2022/01/05 08:14:57;;;;;;;17.92;9.05;;;;;;;2.66;92.56;99057.16;5024281;28;20073;-77
2022/01/05 08:17:22;;;;;;;7.20;2.55;;;;;;;2.72;92.08;99049.34;5015833;28;20042;-77
2022/01/05 08:19:47;;;;;;;6.97;2.13;;;;;;;2.78;91.44;99046.75;5016224;28;20041;-78
2022/01/05 08:22:13;;;;;;;5.43;1.45;;;;;;;2.79;92.01;99051.97;5015742;28;20029;-77
2022/01/05 08:24:39;;;;;;;4.50;1.55;;;;;;;2.88;91.76;99052.84;5015944;28;20041;-77
2022/01/05 08:27:04;;;;;;;5.35;1.65;;;;;;;2.89;91.36;99057.19;5023774;28;20041;-77
2022/01/05 08:29:30;;;;;;;5.38;1.55;;;;;;;2.92;91.33;99059.81;5024067;28;20030;-77
2022/01/05 08:31:55;;;;;;;3.92;1.45;;;;;;;2.95;91.31;99063.28;5021346;28;20492;-77
2022/01/05 08:34:21;;;;;;;4.30;1.40;;;;;;;2.98;90.86;99068.47;5017531;28;20036;-76
2022/01/05 08:36:46;;;;;;;6.10;1.50;;;;;;;2.97;90.72;99065.91;5018548;28;20044;-77
2022/01/05 08:39:14;;;;;;;6.10;1.60;;;;;;;2.98;89.97;99076.28;5018987;28;20233;-77
2022/01/05 08:41:39;;;;;;;7.97;1.65;;;;;;;3.03;90.45;99084.13;5018779;28;20457;-77
2022/01/05 08:44:04;;;;;;;4.15;1.50;;;;;;;2.97;89.96;99079.78;5018314;28;20076;-77
2022/01/05 08:46:30;;;;;;;3.53;1.40;;;;;;;3.01;90.30;99078.94;5018844;28;20041;-77
2022/01/05 08:48:55;;;;;;;3.33;1.50;;;;;;;3.07;90.34;99076.31;5018867;28;20049;-77
2022/01/05 08:51:21;;;;;;;5.18;1.65;;;;;;;3.13;90.52;99077.19;5018483;28;20392;-77
2022/01/05 08:53:46;;;;;;;8.38;1.90;;;;;;;3.14;90.01;99089.34;5017471;28;20483;-77
2022/01/05 08:56:11;;;;;;;5.05;1.80;;;;;;;3.09;89.99;99086.72;5018069;28;20444;-77
2022/01/05 08:58:37;;;;;;;5.30;2.10;;;;;;;3.18;90.15;99083.28;5018581;28;20038;-77
2022/01/05 09:01:02;;;;;;;11.02;4.43;;;;;;;3.22;89.92;99092.81;5017997;28;20049;-77
2022/01/05 09:03:28;;;;;;;9.18;4.28;;;;;;;3.24;90.92;99093.69;5018128;28;20097;-78
2022/01/05 09:05:53;;;;;;;14.00;4.82;;;;;;;3.29;90.90;99086.75;5017754;28;20044;-77
2022/01/05 09:08:18;;;;;;;8.70;3.10;;;;;;;3.31;89.35;99092.84;5017600;28;20030;-78
2022/01/05 09:10:44;;;;;;;6.25;1.95;;;;;;;3.27;89.11;99092.00;5018458;28;20033;-77
2022/01/05 09:13:10;;;;;;;10.18;2.30;;;;;;;3.30;89.28;99104.13;5017950;28;20049;-77
2022/01/05 09:15:35;;;;;;;5.20;2.55;;;;;;;3.42;89.18;99098.91;5017524;28;20026;-77
2022/01/05 09:18:01;;;;;;;7.65;2.72;;;;;;;3.40;88.11;99107.63;5018940;28;20085;-78
2022/01/05 09:20:26;;;;;;;8.88;2.40;;;;;;;3.40;87.79;99108.47;5017968;28;20377;-77
2022/01/05 09:22:52;;;;;;;11.07;3.70;;;;;;;3.41;88.17;99105.03;5017756;28;20033;-77
2022/01/05 09:25:18;;;;;;;10.65;3.53;;;;;;;3.39;87.37;99117.19;5019028;28;20030;-77
2022/01/05 09:27:45;;;;;;;6.47;3.03;;;;;;;3.45;87.71;99117.16;5018238;28;20046;-77
2022/01/05 09:30:12;;;;;;;8.95;3.38;;;;;;;3.40;86.92;99118.91;5018461;28;20115;-77
2022/01/05 09:32:38;;;;;;;8.15;3.25;;;;;;;3.47;86.38;99130.22;5017185;28;20042;-77
2022/01/05 09:35:06;;;;;;;9.95;3.53;;;;;;;3.42;86.29;99130.22;5018460;28;20114;-77
2022/01/05 09:37:35;;;;;;;6.70;2.90;;;;;;;3.62;86.52;99140.66;5018204;28;20113;-78
2022/01/05 09:42:45;;;;;;;10.32;3.03;;;;;;;3.62;86.11;99132.84;5018117;28;20049;-77
2022/01/05 09:45:10;;;;;;;7.28;2.67;;;;;;;3.71;86.39;99138.03;5019264;28;20030;-77
2022/01/05 09:47:41;;;;;;;8.75;3.03;;;;;;;3.83;85.25;99131.09;5021366;28;20034;-77
2022/01/05 09:50:12;;;;;;;10.88;4.20;;;;;;;3.82;85.33;99143.22;5022295;28;20038;-77
2022/01/05 09:52:40;;;;;;;9.65;2.88;;;;;;;3.83;85.56;99138.91;5022204;28;20128;-78
2022/01/05 09:55:08;;;;;;;8.68;2.80;;;;;;;3.82;84.92;99126.72;5021805;28;20034;-77
2022/01/05 09:57:34;;;;;;;10.63;2.80;;;;;;;3.74;84.81;99139.78;5017557;28;20488;-77
2022/01/05 10:00:00;;;;;;;9.93;3.03;;;;;;;3.65;85.35;99153.69;5016390;28;20076;-77
2022/01/05 10:02:26;;;;;;;9.57;3.63;;;;;;;3.50;85.50;99145.88;5017384;28;20053;-77
2022/01/05 10:04:52;;;;;;;10.15;3.20;;;;;;;3.43;85.79;99139.81;5017672;28;20045;-77
2022/01/05 10:07:17;;;;;;;8.45;3.53;;;;;;;3.33;86.57;99147.59;5019463;28;20030;-77
2022/01/05 10:09:45;;;;;;;7.88;2.67;;;;;;;3.31;86.82;99160.66;5018946;28;20042;-77
2022/01/05 10:12:13;;;;;;;8.43;2.55;;;;;;;3.27;86.90;99141.53;5025003;28;20042;-77
2022/01/05 10:14:40;;;;;;;6.10;2.13;;;;;;;3.29;87.02;99141.50;5007684;28;20030;-77
2022/01/05 10:17:13;;;;;;;6.57;2.00;;;;;;;3.20;86.90;99149.34;5016314;28;20033;-77
2022/01/05 10:19:39;;;;;;;8.82;2.33;;;;;;;3.13;86.34;99155.41;5024140;28;20495;-77
2022/01/05 10:22:28;;;;;;;8.63;3.28;;;;;;;3.24;87.45;99154.53;5013612;28;20408;-77
2022/01/05 10:24:56;;;;;;;8.13;2.28;;;;;;;3.32;87.68;99157.16;5016233;28;20488;-77
2022/01/05 10:27:23;;;;;;;5.43;2.08;;;;;;;3.31;86.28;99155.44;5015379;28;20041;-77
2022/01/05 10:29:55;;;;;;;10.60;2.22;;;;;;;3.22;85.60;99150.19;5015646;28;20033;-77
2022/01/05 10:32:21;;;;;;;9.38;2.55;;;;;;;3.25;85.97;99150.22;5016188;28;20038;-77
2022/01/05 10:35:15;;;;;;;6.30;2.22;;;;;;;3.34;85.43;99144.13;5014177;28;20040;-77
2022/01/05 10:37:43;;;;;;;9.07;2.05;;;;;;;3.39;85.44;99153.69;5012754;28;20057;-77
2022/01/05 10:40:19;;;;;;;11.18;2.15;;;;;;;3.44;85.05;99141.53;5015945;28;20053;-77
2022/01/05 10:42:46;;;;;;;8.88;1.90;;;;;;;3.50;84.64;99146.72;5025339;28;20034;-77
2022/01/05 10:45:15;;;;;;;9.20;2.63;;;;;;;3.53;83.37;99150.22;5015316;28;20041;-77
2022/01/05 10:47:41;;;;;;;8.85;2.42;;;;;;;3.48;82.06;99148.50;5015418;28;20042;-77
2022/01/05 10:50:17;;;;;;;10.63;2.10;;;;;;;3.52;81.43;99159.78;5015841;28;20049;-76
2022/01/05 10:52:52;;;;;;;7.32;2.58;;;;;;;3.56;81.77;99151.06;5014745;28;20038;-77
2022/01/05 10:55:18;;;;;;;9.82;3.05;;;;;;;3.70;81.72;99145.88;5014692;28;20064;-77
2022/01/05 10:57:59;;;;;;;6.90;2.50;;;;;;;3.71;80.75;99145.84;5013909;28;20069;-78
2022/01/05 11:00:36;;;;;;;9.75;2.88;;;;;;;3.77;80.28;99152.81;5013795;28;20033;-77
2022/01/05 11:03:18;;;;;;;10.15;3.03;;;;;;;3.74;80.17;99145.84;5012545;28;20037;-77
2022/01/05 11:05:59;;;;;;;7.88;2.60;;;;;;;3.74;78.92;99153.69;5013722;28;20033;-78
2022/01/05 11:08:24;;;;;;;11.50;2.15;;;;;;;3.83;79.72;99139.78;5013082;28;20092;-78
2022/01/05 11:10:49;;;;;;;8.23;2.75;;;;;;;3.95;78.99;99146.69;5015574;28;20499;-78
2022/01/05 11:13:14;;;;;;;10.77;3.67;;;;;;;4.00;75.87;99155.41;5015579;28;20451;-78
2022/01/05 11:15:40;;;;;;;7.50;1.65;;;;;;;3.98;76.21;99138.84;5015344;28;20519;-78
2022/01/05 11:18:20;;;;;;;6.88;1.95;;;;;;;3.97;74.41;99137.13;5012987;28;20549;-77
2022/01/05 11:20:51;;;;;;;7.25;1.92;;;;;;;4.01;75.10;99143.22;5025046;28;20034;-78
2022/01/05 11:23:19;;;;;;;9.70;2.35;;;;;;;4.04;74.16;99149.31;5015337;28;20066;-78
2022/01/05 11:25:46;;;;;;;8.13;2.00;;;;;;;4.11;74.53;99139.72;5022727;28;20507;-78
2022/01/05 11:28:14;;;;;;;9.52;1.83;;;;;;;4.05;71.43;99142.34;5014900;28;20037;-77
2022/01/05 11:30:42;;;;;;;9.38;1.88;;;;;;;4.06;70.96;99136.22;5019781;28;20038;-77
2022/01/05 11:33:08;;;;;;;8.60;2.10;;;;;;;4.07;71.53;99138.84;5014165;28;20073;-77
2022/01/05 11:35:34;;;;;;;7.22;2.88;;;;;;;4.08;70.79;99135.34;5013409;28;20068;-76
2022/01/05 11:38:00;;;;;;;6.20;1.70;;;;;;;4.16;70.42;99133.59;5019264;28;20136;-76
2022/01/05 11:40:29;;;;;;;6.78;1.70;;;;;;;4.19;71.61;99124.88;5012504;28;20034;-77
2022/01/05 11:42:59;;;;;;;10.48;2.35;;;;;;;4.29;71.13;99113.53;5013411;28;20040;-77